sensor_id;sensor_type;location;lat;lon;timestamp;pressure;altitude;pressure_sealevel;temperature;humidity
53858;BME280;39763;51.188;6.690;2022-08-19T00:00:42;100949.38;;;23.43;58.65
53858;BME280;39763;51.188;6.690;2022-08-19T00:02:14;100952.69;;;23.36;58.90
53858;BME280;39763;51.188;6.690;2022-08-19T00:03:47;100947.25;;;23.26;58.90
53858;BME280;39763;51.188;6.690;2022-08-19T00:05:20;100954.94;;;23.19;59.44
53858;BME280;39763;51.188;6.690;2022-08-19T00:06:52;100954.72;;;23.11;59.57
53858;BME280;39763;51.188;6.690;2022-08-19T00:08:24;100952.78;;;23.02;59.87
53858;BME280;39763;51.188;6.690;2022-08-19T00:09:57;100956.56;;;23.00;60.00
53858;BME280;39763;51.188;6.690;2022-08-19T00:11:28;100958.66;;;22.96;60.29
53858;BME280;39763;51.188;6.690;2022-08-19T00:13:00;100957.91;;;22.94;60.19
53858;BME280;39763;51.188;6.690;2022-08-19T00:14:32;100956.56;;;23.00;60.08
53858;BME280;39763;51.188;6.690;2022-08-19T00:16:04;100955.31;;;23.04;60.16
53858;BME280;39763;51.188;6.690;2022-08-19T00:17:37;100953.63;;;23.03;60.13
53858;BME280;39763;51.188;6.690;2022-08-19T00:19:14;100962.38;;;23.05;60.13
53858;BME280;39763;51.188;6.690;2022-08-19T00:20:46;100954.59;;;23.02;60.14
53858;BME280;39763;51.188;6.690;2022-08-19T00:22:18;100953.63;;;23.03;60.04
53858;BME280;39763;51.188;6.690;2022-08-19T00:23:50;100961.19;;;23.09;60.04
53858;BME280;39763;51.188;6.690;2022-08-19T00:25:21;100956.31;;;23.14;60.02
53858;BME280;39763;51.188;6.690;2022-08-19T00:27:01;100948.97;;;23.16;59.85
53858;BME280;39763;51.188;6.690;2022-08-19T00:28:54;100940.97;;;23.05;60.03
53858;BME280;39763;51.188;6.690;2022-08-19T00:30:26;100943.53;;;22.95;60.25
53858;BME280;39763;51.188;6.690;2022-08-19T00:31:59;100944.56;;;22.83;60.70
53858;BME280;39763;51.188;6.690;2022-08-19T00:33:31;100943.28;;;22.76;61.15
53858;BME280;39763;51.188;6.690;2022-08-19T00:35:06;100935.63;;;22.71;61.30
53858;BME280;39763;51.188;6.690;2022-08-19T00:36:38;100943.31;;;22.65;61.63
53858;BME280;39763;51.188;6.690;2022-08-19T00:38:10;100943.44;;;22.63;61.61
53858;BME280;39763;51.188;6.690;2022-08-19T00:39:42;100940.63;;;22.65;61.68
53858;BME280;39763;51.188;6.690;2022-08-19T00:41:15;100939.41;;;22.58;61.90
53858;BME280;39763;51.188;6.690;2022-08-19T00:42:48;100943.22;;;22.55;62.01
53858;BME280;39763;51.188;6.690;2022-08-19T00:44:22;100949.53;;;22.54;62.07
53858;BME280;39763;51.188;6.690;2022-08-19T00:45:57;100948.81;;;22.52;62.06
53858;BME280;39763;51.188;6.690;2022-08-19T00:47:29;100945.28;;;22.51;62.13
53858;BME280;39763;51.188;6.690;2022-08-19T00:49:12;100940.03;;;22.50;62.37
53858;BME280;39763;51.188;6.690;2022-08-19T00:50:49;100943.91;;;22.46;62.29
53858;BME280;39763;51.188;6.690;2022-08-19T00:52:24;100945.63;;;22.47;62.40
53858;BME280;39763;51.188;6.690;2022-08-19T00:53:58;100941.25;;;22.46;62.20
53858;BME280;39763;51.188;6.690;2022-08-19T00:55:32;100941.97;;;22.48;62.39
53858;BME280;39763;51.188;6.690;2022-08-19T00:57:06;100933.94;;;22.48;62.46
53858;BME280;39763;51.188;6.690;2022-08-19T00:58:39;100932.97;;;22.49;62.38
53858;BME280;39763;51.188;6.690;2022-08-19T01:00:18;100923.00;;;22.51;62.36
53858;BME280;39763;51.188;6.690;2022-08-19T01:01:50;100929.44;;;22.48;62.35
53858;BME280;39763;51.188;6.690;2022-08-19T01:03:22;100928.09;;;22.43;62.83
53858;BME280;39763;51.188;6.690;2022-08-19T01:04:54;100937.25;;;22.40;62.71
53858;BME280;39763;51.188;6.690;2022-08-19T01:06:28;100943.94;;;22.35;62.78
53858;BME280;39763;51.188;6.690;2022-08-19T01:08:02;100946.47;;;22.36;62.93
53858;BME280;39763;51.188;6.690;2022-08-19T01:09:35;100947.81;;;22.42;62.78
53858;BME280;39763;51.188;6.690;2022-08-19T01:11:07;100950.75;;;22.50;62.59
53858;BME280;39763;51.188;6.690;2022-08-19T01:12:41;100952.91;;;22.56;62.28
53858;BME280;39763;51.188;6.690;2022-08-19T01:14:13;100942.69;;;22.61;62.13
53858;BME280;39763;51.188;6.690;2022-08-19T01:15:49;100933.47;;;22.65;61.80
53858;BME280;39763;51.188;6.690;2022-08-19T01:17:21;100929.69;;;22.68;61.96
53858;BME280;39763;51.188;6.690;2022-08-19T01:18:53;100935.91;;;22.68;61.78
53858;BME280;39763;51.188;6.690;2022-08-19T01:20:25;100928.22;;;22.64;61.88
53858;BME280;39763;51.188;6.690;2022-08-19T01:22:03;100932.72;;;22.63;62.01
53858;BME280;39763;51.188;6.690;2022-08-19T01:23:48;100935.16;;;22.66;61.86
53858;BME280;39763;51.188;6.690;2022-08-19T01:25:24;100933.94;;;22.70;61.78
53858;BME280;39763;51.188;6.690;2022-08-19T01:26:59;100932.94;;;22.71;61.51
53858;BME280;39763;51.188;6.690;2022-08-19T01:28:31;100934.41;;;22.75;61.64
53858;BME280;39763;51.188;6.690;2022-08-19T01:30:12;100934.19;;;22.78;61.41
53858;BME280;39763;51.188;6.690;2022-08-19T01:31:44;100923.50;;;22.78;61.29
53858;BME280;39763;51.188;6.690;2022-08-19T01:33:16;100931.53;;;22.78;61.42
53858;BME280;39763;51.188;6.690;2022-08-19T01:34:48;100932.50;;;22.77;61.49
53858;BME280;39763;51.188;6.690;2022-08-19T01:36:23;100927.22;;;22.76;61.58
53858;BME280;39763;51.188;6.690;2022-08-19T01:38:00;100924.56;;;22.76;61.40
53858;BME280;39763;51.188;6.690;2022-08-19T01:39:34;100931.72;;;22.75;61.42
53858;BME280;39763;51.188;6.690;2022-08-19T01:41:06;100921.25;;;22.72;61.43
53858;BME280;39763;51.188;6.690;2022-08-19T01:42:41;100932.81;;;22.73;61.33
53858;BME280;39763;51.188;6.690;2022-08-19T01:44:13;100931.00;;;22.73;61.48
53858;BME280;39763;51.188;6.690;2022-08-19T01:45:49;100927.59;;;22.71;61.37
53858;BME280;39763;51.188;6.690;2022-08-19T01:47:22;100930.41;;;22.70;61.45
53858;BME280;39763;51.188;6.690;2022-08-19T01:48:54;100927.88;;;22.68;61.55
53858;BME280;39763;51.188;6.690;2022-08-19T01:50:26;100932.25;;;22.69;61.41
53858;BME280;39763;51.188;6.690;2022-08-19T01:51:59;100928.72;;;22.69;61.57
53858;BME280;39763;51.188;6.690;2022-08-19T01:53:31;100932.38;;;22.68;61.67
53858;BME280;39763;51.188;6.690;2022-08-19T01:55:08;100932.47;;;22.66;61.69
53858;BME280;39763;51.188;6.690;2022-08-19T01:56:40;100931.75;;;22.64;61.67
53858;BME280;39763;51.188;6.690;2022-08-19T01:58:13;100927.25;;;22.65;61.76
53858;BME280;39763;51.188;6.690;2022-08-19T01:59:46;100924.44;;;22.66;61.78
53858;BME280;39763;51.188;6.690;2022-08-19T02:01:18;100925.19;;;22.68;61.54
53858;BME280;39763;51.188;6.690;2022-08-19T02:02:50;100920.69;;;22.69;61.56
53858;BME280;39763;51.188;6.690;2022-08-19T02:04:22;100922.75;;;22.65;61.75
53858;BME280;39763;51.188;6.690;2022-08-19T02:05:55;100923.97;;;22.61;61.82
53858;BME280;39763;51.188;6.690;2022-08-19T02:07:27;100921.06;;;22.53;62.14
53858;BME280;39763;51.188;6.690;2022-08-19T02:09:02;100918.13;;;22.45;62.34
53858;BME280;39763;51.188;6.690;2022-08-19T02:10:38;100929.81;;;22.33;62.77
53858;BME280;39763;51.188;6.690;2022-08-19T02:12:10;100923.09;;;22.16;63.27
53858;BME280;39763;51.188;6.690;2022-08-19T02:13:42;100918.72;;;22.04;63.51
53858;BME280;39763;51.188;6.690;2022-08-19T02:15:14;100918.91;;;21.90;63.78
53858;BME280;39763;51.188;6.690;2022-08-19T02:16:46;100922.31;;;21.80;64.22
53858;BME280;39763;51.188;6.690;2022-08-19T02:18:17;100926.19;;;21.76;64.22
53858;BME280;39763;51.188;6.690;2022-08-19T02:19:49;100930.78;;;21.74;64.40
53858;BME280;39763;51.188;6.690;2022-08-19T02:21:22;100938.69;;;21.76;64.39
53858;BME280;39763;51.188;6.690;2022-08-19T02:22:54;100936.25;;;21.73;64.27
53858;BME280;39763;51.188;6.690;2022-08-19T02:24:27;100936.09;;;21.63;64.69
53858;BME280;39763;51.188;6.690;2022-08-19T02:26:00;100931.50;;;21.65;64.81
53858;BME280;39763;51.188;6.690;2022-08-19T02:27:31;100934.16;;;21.65;64.83
53858;BME280;39763;51.188;6.690;2022-08-19T02:29:04;100940.09;;;21.69;64.83
53858;BME280;39763;51.188;6.690;2022-08-19T02:30:37;100941.06;;;21.68;64.78
53858;BME280;39763;51.188;6.690;2022-08-19T02:32:09;100932.56;;;21.63;64.95
53858;BME280;39763;51.188;6.690;2022-08-19T02:33:41;100935.38;;;21.61;64.88
53858;BME280;39763;51.188;6.690;2022-08-19T02:35:13;100935.22;;;21.52;65.29
53858;BME280;39763;51.188;6.690;2022-08-19T02:36:45;100937.59;;;21.43;65.46
53858;BME280;39763;51.188;6.690;2022-08-19T02:38:22;100938.03;;;21.37;65.78
53858;BME280;39763;51.188;6.690;2022-08-19T02:39:57;100937.03;;;21.27;66.28
53858;BME280;39763;51.188;6.690;2022-08-19T02:41:32;100938.88;;;21.14;66.78
53858;BME280;39763;51.188;6.690;2022-08-19T02:43:07;100939.78;;;21.02;67.36
53858;BME280;39763;51.188;6.690;2022-08-19T02:44:39;100938.75;;;20.92;67.86
53858;BME280;39763;51.188;6.690;2022-08-19T02:46:13;100944.75;;;20.83;68.08
53858;BME280;39763;51.188;6.690;2022-08-19T02:47:45;100951.16;;;20.80;68.23
53858;BME280;39763;51.188;6.690;2022-08-19T02:49:17;100950.19;;;20.81;68.17
53858;BME280;39763;51.188;6.690;2022-08-19T02:50:50;100951.16;;;20.80;68.26
53858;BME280;39763;51.188;6.690;2022-08-19T02:52:26;100951.59;;;20.87;68.04
53858;BME280;39763;51.188;6.690;2022-08-19T02:53:58;100942.41;;;20.91;67.75
53858;BME280;39763;51.188;6.690;2022-08-19T02:55:31;100952.50;;;20.98;67.40
53858;BME280;39763;51.188;6.690;2022-08-19T02:57:17;100957.06;;;21.09;67.24
53858;BME280;39763;51.188;6.690;2022-08-19T02:58:49;100957.25;;;21.19;66.98
53858;BME280;39763;51.188;6.690;2022-08-19T03:00:23;100968.34;;;21.25;66.81
53858;BME280;39763;51.188;6.690;2022-08-19T03:01:55;100952.72;;;21.32;66.49
53858;BME280;39763;51.188;6.690;2022-08-19T03:03:27;100960.16;;;21.39;66.22
53858;BME280;39763;51.188;6.690;2022-08-19T03:04:59;100964.84;;;21.49;66.07
53858;BME280;39763;51.188;6.690;2022-08-19T03:06:31;100962.53;;;21.55;65.69
53858;BME280;39763;51.188;6.690;2022-08-19T03:08:03;100964.75;;;21.61;65.50
53858;BME280;39763;51.188;6.690;2022-08-19T03:09:37;100958.09;;;21.67;65.49
53858;BME280;39763;51.188;6.690;2022-08-19T03:11:13;100956.16;;;21.69;65.28
53858;BME280;39763;51.188;6.690;2022-08-19T03:12:46;100955.94;;;21.72;64.95
53858;BME280;39763;51.188;6.690;2022-08-19T03:14:18;100957.63;;;21.73;65.02
53858;BME280;39763;51.188;6.690;2022-08-19T03:15:50;100954.84;;;21.74;64.83
53858;BME280;39763;51.188;6.690;2022-08-19T03:17:22;100955.47;;;21.78;64.65
53858;BME280;39763;51.188;6.690;2022-08-19T03:18:56;100954.72;;;21.76;64.60
53858;BME280;39763;51.188;6.690;2022-08-19T03:20:31;100961.97;;;21.63;64.98
53858;BME280;39763;51.188;6.690;2022-08-19T03:22:03;100955.84;;;21.50;65.27
53858;BME280;39763;51.188;6.690;2022-08-19T03:23:36;100962.09;;;21.37;65.73
53858;BME280;39763;51.188;6.690;2022-08-19T03:25:08;100959.91;;;21.31;66.06
53858;BME280;39763;51.188;6.690;2022-08-19T03:26:42;100952.09;;;21.28;66.22
53858;BME280;39763;51.188;6.690;2022-08-19T03:28:15;100958.75;;;21.23;66.36
53858;BME280;39763;51.188;6.690;2022-08-19T03:29:47;100960.03;;;21.17;66.34
53858;BME280;39763;51.188;6.690;2022-08-19T03:31:21;100958.53;;;21.13;66.66
53858;BME280;39763;51.188;6.690;2022-08-19T03:33:14;100955.13;;;21.11;67.00
53858;BME280;39763;51.188;6.690;2022-08-19T03:34:48;100955.53;;;21.18;66.69
53858;BME280;39763;51.188;6.690;2022-08-19T03:36:24;100963.00;;;21.25;66.66
53858;BME280;39763;51.188;6.690;2022-08-19T03:37:58;100957.22;;;21.31;66.39
53858;BME280;39763;51.188;6.690;2022-08-19T03:39:29;100962.22;;;21.36;66.00
53858;BME280;39763;51.188;6.690;2022-08-19T03:41:03;100957.66;;;21.25;66.33
53858;BME280;39763;51.188;6.690;2022-08-19T03:42:37;100960.88;;;21.18;66.71
53858;BME280;39763;51.188;6.690;2022-08-19T03:44:30;100965.16;;;21.07;66.96
53858;BME280;39763;51.188;6.690;2022-08-19T03:46:05;100965.22;;;20.95;67.56
53858;BME280;39763;51.188;6.690;2022-08-19T03:47:38;100959.13;;;20.93;67.66
53858;BME280;39763;51.188;6.690;2022-08-19T03:49:09;100956.47;;;20.93;67.73
53858;BME280;39763;51.188;6.690;2022-08-19T03:50:44;100961.81;;;20.93;67.88
53858;BME280;39763;51.188;6.690;2022-08-19T03:52:16;100957.03;;;20.85;67.87
53858;BME280;39763;51.188;6.690;2022-08-19T03:53:48;100960.28;;;20.77;68.50
53858;BME280;39763;51.188;6.690;2022-08-19T03:55:20;100950.78;;;20.73;68.66
53858;BME280;39763;51.188;6.690;2022-08-19T03:56:53;100953.53;;;20.72;68.52
53858;BME280;39763;51.188;6.690;2022-08-19T03:58:26;100952.47;;;20.74;68.88
53858;BME280;39763;51.188;6.690;2022-08-19T04:00:03;100959.81;;;20.84;68.53
53858;BME280;39763;51.188;6.690;2022-08-19T04:01:44;100948.81;;;20.88;68.42
53858;BME280;39763;51.188;6.690;2022-08-19T04:03:16;100956.72;;;20.90;68.17
53858;BME280;39763;51.188;6.690;2022-08-19T04:04:53;100966.06;;;20.95;68.30
53858;BME280;39763;51.188;6.690;2022-08-19T04:06:27;100961.69;;;20.94;68.24
53858;BME280;39763;51.188;6.690;2022-08-19T04:07:59;100958.16;;;20.94;68.33
53858;BME280;39763;51.188;6.690;2022-08-19T04:09:33;100952.34;;;20.89;68.63
53858;BME280;39763;51.188;6.690;2022-08-19T04:11:07;100954.78;;;20.79;68.82
53858;BME280;39763;51.188;6.690;2022-08-19T04:12:39;100956.22;;;20.72;69.14
53858;BME280;39763;51.188;6.690;2022-08-19T04:14:13;100958.44;;;20.65;69.45
53858;BME280;39763;51.188;6.690;2022-08-19T04:15:46;100956.75;;;20.64;69.56
53858;BME280;39763;51.188;6.690;2022-08-19T04:17:18;100959.19;;;20.67;69.63
53858;BME280;39763;51.188;6.690;2022-08-19T04:18:50;100961.00;;;20.67;69.65
53858;BME280;39763;51.188;6.690;2022-08-19T04:20:22;100967.41;;;20.64;69.80
53858;BME280;39763;51.188;6.690;2022-08-19T04:21:54;100953.13;;;20.65;69.78
53858;BME280;39763;51.188;6.690;2022-08-19T04:23:27;100958.69;;;20.62;69.95
53858;BME280;39763;51.188;6.690;2022-08-19T04:24:59;100951.41;;;20.64;69.96
53858;BME280;39763;51.188;6.690;2022-08-19T04:26:34;100963.19;;;20.62;70.02
53858;BME280;39763;51.188;6.690;2022-08-19T04:28:06;100959.75;;;20.60;69.97
53858;BME280;39763;51.188;6.690;2022-08-19T04:29:38;100960.16;;;20.66;69.77
53858;BME280;39763;51.188;6.690;2022-08-19T04:31:15;100962.31;;;20.74;69.85
53858;BME280;39763;51.188;6.690;2022-08-19T04:32:46;100965.38;;;20.81;69.48
53858;BME280;39763;51.188;6.690;2022-08-19T04:34:20;100969.81;;;20.93;69.38
53858;BME280;39763;51.188;6.690;2022-08-19T04:35:55;100963.94;;;21.00;68.93
53858;BME280;39763;51.188;6.690;2022-08-19T04:37:28;100966.38;;;21.03;68.78
53858;BME280;39763;51.188;6.690;2022-08-19T04:39:07;100974.78;;;21.10;68.62
53858;BME280;39763;51.188;6.690;2022-08-19T04:40:40;100970.72;;;21.17;68.24
53858;BME280;39763;51.188;6.690;2022-08-19T04:42:31;100970.53;;;21.20;68.09
53858;BME280;39763;51.188;6.690;2022-08-19T04:44:12;100970.28;;;21.23;67.78
53858;BME280;39763;51.188;6.690;2022-08-19T04:45:44;100970.06;;;21.26;67.72
53858;BME280;39763;51.188;6.690;2022-08-19T04:47:18;100968.13;;;21.28;67.54
53858;BME280;39763;51.188;6.690;2022-08-19T04:49:09;100972.50;;;21.29;67.67
53858;BME280;39763;51.188;6.690;2022-08-19T04:50:44;100980.53;;;21.29;67.41
53858;BME280;39763;51.188;6.690;2022-08-19T04:52:16;100981.16;;;21.33;67.73
53858;BME280;39763;51.188;6.690;2022-08-19T04:53:47;100991.47;;;21.37;67.51
53858;BME280;39763;51.188;6.690;2022-08-19T04:55:19;100996.59;;;21.40;67.44
53858;BME280;39763;51.188;6.690;2022-08-19T04:56:52;100990.59;;;21.50;67.59
53858;BME280;39763;51.188;6.690;2022-08-19T04:58:25;100992.06;;;21.54;67.08
53858;BME280;39763;51.188;6.690;2022-08-19T04:59:57;100993.53;;;21.58;66.90
53858;BME280;39763;51.188;6.690;2022-08-19T05:01:31;100996.63;;;21.64;67.10
53858;BME280;39763;51.188;6.690;2022-08-19T05:03:05;101004.03;;;21.72;66.96
53858;BME280;39763;51.188;6.690;2022-08-19T05:04:38;100999.69;;;21.82;67.19
53858;BME280;39763;51.188;6.690;2022-08-19T05:06:13;101001.97;;;21.99;66.92
53858;BME280;39763;51.188;6.690;2022-08-19T05:07:45;100999.59;;;22.19;66.61
53858;BME280;39763;51.188;6.690;2022-08-19T05:09:17;101008.63;;;22.29;65.91
53858;BME280;39763;51.188;6.690;2022-08-19T05:10:50;101008.72;;;22.27;65.61
53858;BME280;39763;51.188;6.690;2022-08-19T05:12:22;101007.50;;;22.20;65.75
53858;BME280;39763;51.188;6.690;2022-08-19T05:14:00;101013.69;;;22.09;65.92
53858;BME280;39763;51.188;6.690;2022-08-19T05:15:32;101015.13;;;22.02;66.18
53858;BME280;39763;51.188;6.690;2022-08-19T05:17:04;101014.47;;;21.99;66.46
53858;BME280;39763;51.188;6.690;2022-08-19T05:18:57;101019.78;;;21.88;66.76
53858;BME280;39763;51.188;6.690;2022-08-19T05:20:48;101024.63;;;21.82;66.97
53858;BME280;39763;51.188;6.690;2022-08-19T05:22:38;101024.13;;;21.77;67.11
53858;BME280;39763;51.188;6.690;2022-08-19T05:24:11;101025.22;;;21.75;67.38
53858;BME280;39763;51.188;6.690;2022-08-19T05:25:44;101025.22;;;21.75;67.41
53858;BME280;39763;51.188;6.690;2022-08-19T05:27:15;101025.22;;;21.75;67.35
53858;BME280;39763;51.188;6.690;2022-08-19T05:28:47;101025.22;;;21.75;67.38
53858;BME280;39763;51.188;6.690;2022-08-19T05:30:25;101022.78;;;21.83;67.44
53858;BME280;39763;51.188;6.690;2022-08-19T05:32:16;101022.88;;;21.94;67.16
53858;BME280;39763;51.188;6.690;2022-08-19T05:33:48;101026.34;;;22.07;66.97
53858;BME280;39763;51.188;6.690;2022-08-19T05:35:22;101031.38;;;22.23;66.52
53858;BME280;39763;51.188;6.690;2022-08-19T05:36:57;101032.59;;;22.41;66.15
53858;BME280;39763;51.188;6.690;2022-08-19T05:38:29;101031.03;;;22.61;65.72
53858;BME280;39763;51.188;6.690;2022-08-19T05:40:01;101028.13;;;22.75;64.92
53858;BME280;39763;51.188;6.690;2022-08-19T05:41:34;101030.25;;;22.83;64.58
53858;BME280;39763;51.188;6.690;2022-08-19T05:43:07;101025.97;;;22.92;64.24
53858;BME280;39763;51.188;6.690;2022-08-19T05:44:41;101016.94;;;23.04;63.95
53858;BME280;39763;51.188;6.690;2022-08-19T05:46:18;101023.41;;;23.12;63.57
53858;BME280;39763;51.188;6.690;2022-08-19T05:47:58;101023.50;;;23.22;63.23
53858;BME280;39763;51.188;6.690;2022-08-19T05:49:32;101027.97;;;23.33;63.11
53858;BME280;39763;51.188;6.690;2022-08-19T05:51:06;101023.09;;;23.38;62.46
53858;BME280;39763;51.188;6.690;2022-08-19T05:52:39;101036.59;;;23.47;62.34
53858;BME280;39763;51.188;6.690;2022-08-19T05:54:21;101033.44;;;23.53;62.21
53858;BME280;39763;51.188;6.690;2022-08-19T05:55:54;101031.94;;;23.61;62.00
53858;BME280;39763;51.188;6.690;2022-08-19T05:57:27;101035.09;;;23.66;61.63
53858;BME280;39763;51.188;6.690;2022-08-19T05:59:00;101032.06;;;23.70;61.66
53858;BME280;39763;51.188;6.690;2022-08-19T06:00:32;101036.03;;;23.76;61.31
53858;BME280;39763;51.188;6.690;2022-08-19T06:02:05;101032.97;;;23.80;61.16
53858;BME280;39763;51.188;6.690;2022-08-19T06:03:38;101029.19;;;23.83;60.76
53858;BME280;39763;51.188;6.690;2022-08-19T06:05:11;101028.09;;;23.85;60.99
53858;BME280;39763;51.188;6.690;2022-08-19T06:06:44;101023.59;;;23.86;60.47
53858;BME280;39763;51.188;6.690;2022-08-19T06:08:16;101036.59;;;23.90;60.77
53858;BME280;39763;51.188;6.690;2022-08-19T06:09:49;101029.38;;;23.91;60.46
53858;BME280;39763;51.188;6.690;2022-08-19T06:11:34;101024.94;;;23.80;60.66
53858;BME280;39763;51.188;6.690;2022-08-19T06:13:06;101025.47;;;23.63;60.88
53858;BME280;39763;51.188;6.690;2022-08-19T06:14:37;101022.22;;;23.48;61.47
53858;BME280;39763;51.188;6.690;2022-08-19T06:16:12;101019.81;;;23.34;61.85
53858;BME280;39763;51.188;6.690;2022-08-19T06:17:44;101020.06;;;23.31;62.32
53858;BME280;39763;51.188;6.690;2022-08-19T06:19:18;101019.34;;;23.29;62.11
53858;BME280;39763;51.188;6.690;2022-08-19T06:20:50;101017.88;;;23.36;62.26
53858;BME280;39763;51.188;6.690;2022-08-19T06:22:27;101019.41;;;23.50;62.03
53858;BME280;39763;51.188;6.690;2022-08-19T06:23:59;101014.03;;;23.61;61.61
53858;BME280;39763;51.188;6.690;2022-08-19T06:25:31;101023.59;;;23.75;61.29
53858;BME280;39763;51.188;6.690;2022-08-19T06:27:04;101014.34;;;23.79;61.31
53858;BME280;39763;51.188;6.690;2022-08-19T06:28:37;101021.66;;;23.77;61.39
53858;BME280;39763;51.188;6.690;2022-08-19T06:30:14;101012.31;;;23.71;61.73
53858;BME280;39763;51.188;6.690;2022-08-19T06:31:50;101015.66;;;23.52;62.07
53858;BME280;39763;51.188;6.690;2022-08-19T06:33:23;101015.91;;;23.38;62.69
53858;BME280;39763;51.188;6.690;2022-08-19T06:34:54;101018.22;;;23.43;62.71
53858;BME280;39763;51.188;6.690;2022-08-19T06:36:28;101015.53;;;23.54;62.43
53858;BME280;39763;51.188;6.690;2022-08-19T06:38:04;101022.19;;;23.60;62.32
53858;BME280;39763;51.188;6.690;2022-08-19T06:39:39;101025.09;;;23.68;62.20
53858;BME280;39763;51.188;6.690;2022-08-19T06:41:11;101016.28;;;23.77;61.77
53858;BME280;39763;51.188;6.690;2022-08-19T06:42:43;101024.56;;;23.85;62.09
53858;BME280;39763;51.188;6.690;2022-08-19T06:44:27;101027.69;;;23.90;61.48
53858;BME280;39763;51.188;6.690;2022-08-19T06:46:02;101022.59;;;23.87;61.86
53858;BME280;39763;51.188;6.690;2022-08-19T06:47:36;101028.22;;;23.84;61.82
53858;BME280;39763;51.188;6.690;2022-08-19T06:49:08;101025.31;;;23.76;61.76
53858;BME280;39763;51.188;6.690;2022-08-19T06:50:44;101019.03;;;23.66;62.17
53858;BME280;39763;51.188;6.690;2022-08-19T06:52:16;101024.88;;;23.60;62.28
53858;BME280;39763;51.188;6.690;2022-08-19T06:53:51;101030.97;;;23.50;62.78
53858;BME280;39763;51.188;6.690;2022-08-19T06:55:23;101036.00;;;23.44;62.99
53858;BME280;39763;51.188;6.690;2022-08-19T06:56:55;101036.00;;;23.44;63.29
53858;BME280;39763;51.188;6.690;2022-08-19T06:58:28;101033.34;;;23.44;62.96
53858;BME280;39763;51.188;6.690;2022-08-19T07:00:04;101041.00;;;23.37;63.45
53858;BME280;39763;51.188;6.690;2022-08-19T07:01:47;101041.13;;;23.36;63.59
53858;BME280;39763;51.188;6.690;2022-08-19T07:03:20;101042.47;;;23.41;63.58
53858;BME280;39763;51.188;6.690;2022-08-19T07:04:52;101038.41;;;23.47;63.08
53858;BME280;39763;51.188;6.690;2022-08-19T07:06:24;101040.25;;;23.46;63.15
53858;BME280;39763;51.188;6.690;2022-08-19T07:08:14;101043.06;;;23.45;63.61
53858;BME280;39763;51.188;6.690;2022-08-19T07:09:50;101036.47;;;23.49;63.56
53858;BME280;39763;51.188;6.690;2022-08-19T07:11:31;101036.34;;;23.50;63.00
53858;BME280;39763;51.188;6.690;2022-08-19T07:13:04;101036.13;;;23.53;63.33
53858;BME280;39763;51.188;6.690;2022-08-19T07:14:38;101037.84;;;23.54;63.31
53858;BME280;39763;51.188;6.690;2022-08-19T07:16:13;101036.75;;;23.57;63.29
53858;BME280;39763;51.188;6.690;2022-08-19T07:17:50;101039.88;;;23.62;63.25
53858;BME280;39763;51.188;6.690;2022-08-19T07:19:25;101047.16;;;23.71;62.71
53858;BME280;39763;51.188;6.690;2022-08-19T07:21:03;101046.41;;;23.80;62.58
53858;BME280;39763;51.188;6.690;2022-08-19T07:22:39;101045.47;;;23.91;62.28
53858;BME280;39763;51.188;6.690;2022-08-19T07:24:11;101051.81;;;24.01;62.12
53858;BME280;39763;51.188;6.690;2022-08-19T07:25:45;101048.59;;;24.07;61.76
53858;BME280;39763;51.188;6.690;2022-08-19T07:27:23;101045.25;;;24.15;61.93
53858;BME280;39763;51.188;6.690;2022-08-19T07:28:56;101051.94;;;24.20;61.76
53858;BME280;39763;51.188;6.690;2022-08-19T07:30:29;101041.81;;;24.24;61.05
53858;BME280;39763;51.188;6.690;2022-08-19T07:32:03;101054.47;;;24.33;61.40
53858;BME280;39763;51.188;6.690;2022-08-19T07:33:35;101057.47;;;24.40;61.29
53858;BME280;39763;51.188;6.690;2022-08-19T07:35:08;101060.34;;;24.48;60.63
53858;BME280;39763;51.188;6.690;2022-08-19T07:36:43;101064.06;;;24.56;60.50
53858;BME280;39763;51.188;6.690;2022-08-19T07:38:15;101056.59;;;24.60;60.02
53858;BME280;39763;51.188;6.690;2022-08-19T07:39:47;101064.41;;;24.63;60.35
53858;BME280;39763;51.188;6.690;2022-08-19T07:41:22;101065.19;;;24.54;60.43
53858;BME280;39763;51.188;6.690;2022-08-19T07:42:54;101060.88;;;24.42;60.50
53858;BME280;39763;51.188;6.690;2022-08-19T07:44:26;101055.88;;;24.16;61.29
53858;BME280;39763;51.188;6.690;2022-08-19T07:45:58;101062.53;;;24.01;62.35
53858;BME280;39763;51.188;6.690;2022-08-19T07:47:30;101072.41;;;24.01;62.40
53858;BME280;39763;51.188;6.690;2022-08-19T07:49:21;101065.94;;;24.03;62.91
53858;BME280;39763;51.188;6.690;2022-08-19T07:50:55;101068.22;;;24.08;62.31
53858;BME280;39763;51.188;6.690;2022-08-19T07:52:28;101073.22;;;24.12;62.47
53858;BME280;39763;51.188;6.690;2022-08-19T07:54:00;101074.78;;;24.15;62.43
53858;BME280;39763;51.188;6.690;2022-08-19T07:55:32;101075.38;;;24.18;62.24
53858;BME280;39763;51.188;6.690;2022-08-19T07:57:16;101089.28;;;24.23;61.83
53858;BME280;39763;51.188;6.690;2022-08-19T07:58:50;101090.00;;;24.25;61.91
53858;BME280;39763;51.188;6.690;2022-08-19T08:00:22;101087.31;;;24.25;61.50
53858;BME280;39763;51.188;6.690;2022-08-19T08:01:56;101092.91;;;24.22;61.96
53858;BME280;39763;51.188;6.690;2022-08-19T08:03:28;101093.78;;;24.23;61.77
53858;BME280;39763;51.188;6.690;2022-08-19T08:05:19;101098.06;;;24.25;61.67
53858;BME280;39763;51.188;6.690;2022-08-19T08:07:14;101101.28;;;24.40;61.44
53858;BME280;39763;51.188;6.690;2022-08-19T08:09:05;101104.22;;;24.58;61.17
53858;BME280;39763;51.188;6.690;2022-08-19T08:10:47;101098.59;;;24.61;60.70
53858;BME280;39763;51.188;6.690;2022-08-19T08:12:29;101103.16;;;24.70;60.42
53858;BME280;39763;51.188;6.690;2022-08-19T08:14:06;101097.13;;;24.78;60.35